createdAt,value
2023-02-12T00:01:08.946Z,6.80
2023-02-12T00:03:59.409Z,6.80
2023-02-12T00:09:39.417Z,6.80
2023-02-12T00:12:48.611Z,7.00
2023-02-12T00:15:37.553Z,6.90
2023-02-12T00:21:14.410Z,6.90
2023-02-12T00:27:01.959Z,6.90
2023-02-12T00:29:54.267Z,6.80
2023-02-12T00:32:28.968Z,6.90
2023-02-12T00:38:18.421Z,6.90
2023-02-12T00:40:58.238Z,6.90
2023-02-12T00:43:37.101Z,7.00
2023-02-12T00:46:23.029Z,7.00
2023-02-12T00:49:21.638Z,6.90
2023-02-12T00:52:00.299Z,7.00
2023-02-12T00:54:46.978Z,6.90
2023-02-12T00:57:26.728Z,6.90
2023-02-12T01:00:04.980Z,6.90
2023-02-12T01:02:49.971Z,6.90
2023-02-12T01:05:27.812Z,6.90
2023-02-12T01:08:20.433Z,7.00
2023-02-12T01:11:19.371Z,7.00
2023-02-12T01:14:11.027Z,6.90
2023-02-12T01:17:11.246Z,7.00
2023-02-12T01:19:58.451Z,6.90
2023-02-12T01:22:41.458Z,6.90
2023-02-12T01:25:18.690Z,6.90
2023-02-12T01:27:56.053Z,6.90
2023-02-12T01:30:33.496Z,6.90
2023-02-12T01:36:44.993Z,7.00
2023-02-12T01:48:45.357Z,7.00
2023-02-12T01:51:25.669Z,7.00
2023-02-12T01:57:13.357Z,7.00
2023-02-12T02:00:15.825Z,6.90
2023-02-12T02:03:21.732Z,7.00
2023-02-12T02:06:12.539Z,6.90
2023-02-12T02:08:51.915Z,6.90
2023-02-12T02:11:41.940Z,7.00
2023-02-12T02:14:50.761Z,7.00
2023-02-12T02:17:45.288Z,7.00
2023-02-12T02:20:37.412Z,7.00
2023-02-12T02:23:19.638Z,7.00
2023-02-12T02:26:10.502Z,7.00
2023-02-12T02:28:58.324Z,7.00
2023-02-12T02:31:33.298Z,6.90
2023-02-12T02:34:11.576Z,7.00
2023-02-12T02:36:58.316Z,7.00
2023-02-12T02:39:33.942Z,7.00
2023-02-12T02:42:07.707Z,7.10
2023-02-12T02:44:39.028Z,7.00
2023-02-12T02:47:12.223Z,7.00
2023-02-12T02:49:50.739Z,7.00
2023-02-12T02:52:23.603Z,7.00
2023-02-12T02:54:58.665Z,7.10
2023-02-12T02:57:33.388Z,7.00
2023-02-12T03:00:08.332Z,7.10
2023-02-12T03:02:53.451Z,7.10
2023-02-12T03:05:37.032Z,7.20
2023-02-12T03:08:13.898Z,7.10
2023-02-12T03:10:48.071Z,7.10
2023-02-12T03:13:20.881Z,7.10
2023-02-12T03:16:06.751Z,7.20
2023-02-12T03:18:38.908Z,7.20
2023-02-12T03:21:17.390Z,7.20
2023-02-12T03:24:02.880Z,7.20
2023-02-12T03:26:39.760Z,7.20
2023-02-12T03:29:09.785Z,7.20
2023-02-12T03:31:47.082Z,7.20
2023-02-12T03:34:24.060Z,7.20
2023-02-12T03:37:08.369Z,7.20
2023-02-12T03:40:01.614Z,7.20
2023-02-12T03:42:37.039Z,7.20
2023-02-12T03:45:20.382Z,7.20
2023-02-12T03:48:09.396Z,7.20
2023-02-12T03:51:05.645Z,7.20
2023-02-12T03:56:32.202Z,7.20
2023-02-12T03:59:04.840Z,7.20
2023-02-12T04:01:39.733Z,7.20
2023-02-12T04:04:34.024Z,7.20
2023-02-12T04:07:29.284Z,7.20
2023-02-12T04:10:21.863Z,7.20
2023-02-12T04:12:56.032Z,7.20
2023-02-12T04:15:42.627Z,7.20
2023-02-12T04:18:34.547Z,7.20
2023-02-12T04:24:15.927Z,7.20
2023-02-12T04:26:53.999Z,7.20
2023-02-12T04:29:29.075Z,7.30
2023-02-12T04:32:24.981Z,7.30
2023-02-12T04:35:15.931Z,7.30
2023-02-12T04:38:04.831Z,7.30
2023-02-12T04:40:46.579Z,7.20
2023-02-12T04:43:32.809Z,7.40
2023-02-12T04:46:08.552Z,7.40
2023-02-12T04:48:40.088Z,7.40
2023-02-12T04:51:16.461Z,7.30
2023-02-12T04:53:49.933Z,7.30
2023-02-12T04:56:44.446Z,7.40
2023-02-12T04:59:28.846Z,7.30
2023-02-12T05:04:44.941Z,7.30
2023-02-12T05:07:16.453Z,7.30
2023-02-12T05:09:59.665Z,7.30
2023-02-12T05:12:29.291Z,7.30
2023-02-12T05:15:01.636Z,7.20
2023-02-12T05:17:34.725Z,7.20
2023-02-12T05:20:12.057Z,7.20
2023-02-12T05:22:55.034Z,7.20
2023-02-12T05:25:38.316Z,7.20
2023-02-12T05:28:08.645Z,7.20
2023-02-12T05:30:41.180Z,7.20
2023-02-12T05:33:18.596Z,7.10
2023-02-12T05:35:50.712Z,7.00
2023-02-12T05:38:24.015Z,7.00
2023-02-12T05:40:55.312Z,7.10
2023-02-12T05:43:30.162Z,7.10
2023-02-12T05:46:08.112Z,7.00
2023-02-12T05:48:39.737Z,7.00
2023-02-12T05:51:16.960Z,7.00
2023-02-12T05:53:58.062Z,7.00
2023-02-12T05:56:36.627Z,7.00
2023-02-12T05:59:08.783Z,7.10
2023-02-12T06:01:42.882Z,7.10
2023-02-12T06:04:32.878Z,7.10
2023-02-12T06:07:08.320Z,7.10
2023-02-12T06:12:50.283Z,7.20
2023-02-12T06:15:23.180Z,7.10
2023-02-12T06:18:02.675Z,7.20
2023-02-12T06:20:38.862Z,7.10
2023-02-12T06:23:13.609Z,7.10
2023-02-12T06:25:49.355Z,7.10
2023-02-12T06:28:29.320Z,7.10
2023-02-12T06:31:03.476Z,7.20
2023-02-12T06:33:40.559Z,7.20
2023-02-12T06:36:16.688Z,7.30
2023-02-12T06:38:52.556Z,7.30
2023-02-12T06:41:29.193Z,7.20
2023-02-12T06:44:00.352Z,7.20
2023-02-12T06:46:34.041Z,7.20
2023-02-12T06:49:24.099Z,7.30
2023-02-12T06:52:03.198Z,7.30
2023-02-12T06:54:38.166Z,7.30
2023-02-12T06:57:09.243Z,7.30
2023-02-12T06:59:49.578Z,7.30
2023-02-12T07:02:22.116Z,7.40
2023-02-12T07:05:01.444Z,7.40
2023-02-12T07:07:45.080Z,7.30
2023-02-12T07:10:34.104Z,7.30
2023-02-12T07:13:04.393Z,7.30
2023-02-12T07:15:47.924Z,7.30
2023-02-12T07:18:22.469Z,7.30
2023-02-12T07:20:58.735Z,7.40
2023-02-12T07:23:43.526Z,7.40
2023-02-12T07:26:23.089Z,7.50
2023-02-12T07:28:56.575Z,7.40
2023-02-12T07:31:26.102Z,7.40
2023-02-12T07:37:03.205Z,7.40
2023-02-12T07:39:32.501Z,7.40
2023-02-12T07:42:02.726Z,7.50
2023-02-12T07:44:35.054Z,7.50
2023-02-12T07:47:12.075Z,7.50
2023-02-12T07:49:58.005Z,7.50
2023-02-12T07:52:33.875Z,7.50
2023-02-12T07:55:12.939Z,7.50
2023-02-12T07:57:44.951Z,7.50
2023-02-12T08:00:21.039Z,7.40
2023-02-12T08:03:05.712Z,7.50
2023-02-12T08:05:50.031Z,7.50
2023-02-12T08:08:39.236Z,7.50
2023-02-12T08:11:16.813Z,7.50
2023-02-12T08:14:00.017Z,7.50
2023-02-12T08:16:33.506Z,7.60
2023-02-12T08:19:18.673Z,7.60
2023-02-12T08:21:56.993Z,7.60
2023-02-12T08:24:36.396Z,7.60
2023-02-12T08:27:24.546Z,7.60
2023-02-12T08:29:56.982Z,7.70
2023-02-12T08:32:36.992Z,7.70
2023-02-12T08:37:57.017Z,7.70
2023-02-12T08:40:33.981Z,7.60
2023-02-12T08:46:03.410Z,7.70
2023-02-12T08:48:36.627Z,7.70
2023-02-12T08:51:09.354Z,7.70
2023-02-12T08:53:45.413Z,7.80
2023-02-12T08:56:30.262Z,7.80
2023-02-12T08:59:23.857Z,7.90
2023-02-12T09:02:02.300Z,7.90
2023-02-12T09:04:36.651Z,7.90
2023-02-12T09:07:10.920Z,7.90
2023-02-12T09:12:39.177Z,7.90
2023-02-12T09:15:25.805Z,8.00
2023-02-12T09:18:11.297Z,8.00
2023-02-12T09:21:02.497Z,8.10
2023-02-12T09:23:33.612Z,8.10
2023-02-12T09:26:09.702Z,8.30
2023-02-12T09:28:45.527Z,8.40
2023-02-12T09:31:28.488Z,8.50
2023-02-12T09:34:24.465Z,8.50
2023-02-12T09:36:56.484Z,8.60
2023-02-12T09:39:37.541Z,8.50
2023-02-12T09:42:26.532Z,8.50
2023-02-12T09:45:23.480Z,8.60
2023-02-12T09:48:04.268Z,8.50
2023-02-12T09:51:09.200Z,8.50
2023-02-12T09:53:41.532Z,8.50
2023-02-12T09:56:28.256Z,8.60
2023-02-12T09:59:04.045Z,8.60
2023-02-12T10:01:39.715Z,8.60
2023-02-12T10:04:35.667Z,8.60
2023-02-12T10:10:33.049Z,8.40
2023-02-12T10:13:10.835Z,8.40
2023-02-12T10:16:01.623Z,8.40
2023-02-12T10:18:53.568Z,8.40
2023-02-12T10:21:41.979Z,8.40
2023-02-12T10:24:25.403Z,8.40
2023-02-12T10:27:07.966Z,8.30
2023-02-12T10:30:05.779Z,8.30
2023-02-12T10:32:43.202Z,8.30
2023-02-12T10:35:18.671Z,8.20
2023-02-12T10:38:17.053Z,8.30
2023-02-12T10:41:00.160Z,8.40
2023-02-12T10:43:42.337Z,8.40
2023-02-12T10:46:20.440Z,8.60
2023-02-12T10:48:54.453Z,8.60
2023-02-12T10:51:38.062Z,8.50
2023-02-12T10:54:47.179Z,8.70
2023-02-12T10:57:51.454Z,8.70
2023-02-12T11:00:59.325Z,8.70
2023-02-12T11:03:52.095Z,8.80
2023-02-12T11:06:48.255Z,8.60
2023-02-12T11:09:54.171Z,8.60
2023-02-12T11:12:44.266Z,8.70
2023-02-12T11:15:18.017Z,8.70
2023-02-12T11:20:52.240Z,8.80
2023-02-12T11:23:38.554Z,8.90
2023-02-12T11:26:33.050Z,8.80
2023-02-12T11:29:05.018Z,8.80
2023-02-12T11:31:42.797Z,8.80
2023-02-12T11:34:37.538Z,8.70
2023-02-12T11:37:24.102Z,8.70
2023-02-12T11:40:17.047Z,8.80
2023-02-12T11:42:51.473Z,8.80
2023-02-12T11:45:32.050Z,8.80
2023-02-12T11:48:01.616Z,8.90
2023-02-12T11:50:32.456Z,8.80
2023-02-12T11:53:07.481Z,8.90
2023-02-12T11:55:40.426Z,8.80
2023-02-12T11:58:16.417Z,8.90
2023-02-12T12:00:52.743Z,9.00
2023-02-12T12:03:23.965Z,8.90
2023-02-12T12:05:56.704Z,9.00
2023-02-12T12:08:29.716Z,8.90
2023-02-12T12:11:00.571Z,8.80
2023-02-12T12:13:37.704Z,8.70
2023-02-12T12:16:40.430Z,8.80
2023-02-12T12:19:29.177Z,8.80
2023-02-12T12:22:09.855Z,8.70
2023-02-12T12:30:18.841Z,8.80
2023-02-12T12:32:49.871Z,8.80
2023-02-12T12:35:20.909Z,8.80
2023-02-12T12:37:51.093Z,8.80
2023-02-12T12:40:39.181Z,8.80
2023-02-12T12:43:12.940Z,8.90
2023-02-12T12:45:57.650Z,8.80
2023-02-12T12:48:31.996Z,8.70
2023-02-12T12:51:07.193Z,8.60
2023-02-12T12:53:44.336Z,8.60
2023-02-12T12:56:25.893Z,8.50
2023-02-12T12:59:05.473Z,8.60
2023-02-12T13:01:49.252Z,8.60
2023-02-12T13:04:33.095Z,8.60
2023-02-12T13:07:14.404Z,8.60
2023-02-12T13:09:50.211Z,8.60
2023-02-12T13:12:29.270Z,8.70
2023-02-12T13:15:01.423Z,8.60
2023-02-12T13:17:32.775Z,8.50
2023-02-12T13:20:06.717Z,8.50
2023-02-12T13:22:39.539Z,8.40
2023-02-12T13:25:20.656Z,8.50
2023-02-12T13:27:51.059Z,8.40
2023-02-12T13:30:22.655Z,8.50
2023-02-12T13:32:54.045Z,8.50
2023-02-12T13:35:24.541Z,8.50
2023-02-12T13:37:56.138Z,8.50
2023-02-12T13:40:25.738Z,8.50
2023-02-12T13:42:57.317Z,8.60
2023-02-12T13:45:35.901Z,8.60
2023-02-12T13:48:16.819Z,8.60
2023-02-12T13:50:49.466Z,8.60
2023-02-12T13:53:25.592Z,8.70
2023-02-12T13:56:10.881Z,8.70
2023-02-12T13:59:01.130Z,8.80
2023-02-12T14:01:44.260Z,8.80
2023-02-12T14:04:33.311Z,8.80
2023-02-12T14:07:04.124Z,8.90
2023-02-12T14:09:40.886Z,8.80
2023-02-12T14:12:10.925Z,8.80
2023-02-12T14:14:41.646Z,8.80
2023-02-12T14:17:29.024Z,8.80
2023-02-12T14:19:59.330Z,8.80
2023-02-12T14:22:54.893Z,8.90
2023-02-12T14:25:35.676Z,9.00
2023-02-12T14:28:09.142Z,9.00
2023-02-12T14:30:40.408Z,9.00
2023-02-12T14:33:13.395Z,9.10
2023-02-12T14:35:42.415Z,9.00
2023-02-12T14:38:25.821Z,8.90
2023-02-12T14:41:34.423Z,8.90
2023-02-12T14:44:23.498Z,9.00
2023-02-12T14:46:53.383Z,8.90
2023-02-12T14:49:26.404Z,8.90
2023-02-12T14:51:57.110Z,9.00
2023-02-12T14:54:29.936Z,9.00
2023-02-12T14:57:01.667Z,9.00
2023-02-12T14:59:34.072Z,9.00
2023-02-12T15:02:04.292Z,9.00
2023-02-12T15:04:34.135Z,9.00
2023-02-12T15:07:08.264Z,8.90
2023-02-12T15:09:39.460Z,8.90
2023-02-12T15:12:12.730Z,8.80
2023-02-12T15:14:43.901Z,9.00
2023-02-12T15:17:13.423Z,8.90
2023-02-12T15:19:43.648Z,9.00
2023-02-12T15:22:23.019Z,9.00
2023-02-12T15:24:52.813Z,9.00
2023-02-12T15:27:22.861Z,9.10
2023-02-12T15:29:53.193Z,9.00
2023-02-12T15:32:25.997Z,9.10
2023-02-12T15:34:57.202Z,9.00
2023-02-12T15:37:29.789Z,9.00
2023-02-12T15:39:59.283Z,8.90
2023-02-12T15:42:32.242Z,8.90
2023-02-12T15:45:04.565Z,8.80
2023-02-12T15:47:34.941Z,8.80
2023-02-12T15:50:03.978Z,8.80
2023-02-12T15:52:35.667Z,8.80
2023-02-12T15:55:06.070Z,8.80
2023-02-12T15:57:36.085Z,8.80
2023-02-12T16:00:07.842Z,8.90
2023-02-12T16:02:36.117Z,8.80
2023-02-12T16:05:05.928Z,8.70
2023-02-12T16:07:37.225Z,8.80
2023-02-12T16:10:06.702Z,8.70
2023-02-12T16:12:37.886Z,8.80
2023-02-12T16:15:06.613Z,8.80
2023-02-12T16:17:35.654Z,8.70
2023-02-12T16:20:06.081Z,8.70
2023-02-12T16:22:35.576Z,8.70
2023-02-12T16:25:04.019Z,8.60
2023-02-12T16:27:33.090Z,8.70
2023-02-12T16:30:03.852Z,8.80
2023-02-12T16:32:38.487Z,8.80
2023-02-12T16:35:08.707Z,8.70
2023-02-12T16:37:45.466Z,8.70
2023-02-12T16:40:30.383Z,8.70
2023-02-12T16:43:17.205Z,8.70
2023-02-12T16:45:46.864Z,8.60
2023-02-12T16:48:17.621Z,8.60
2023-02-12T16:50:48.092Z,8.60
2023-02-12T16:53:25.297Z,8.60
2023-02-12T16:55:56.101Z,8.70
2023-02-12T16:58:26.060Z,8.60
2023-02-12T17:00:56.213Z,8.60
2023-02-12T17:03:25.097Z,8.60
2023-02-12T17:05:53.542Z,8.60
2023-02-12T17:08:22.613Z,8.60
2023-02-12T17:10:51.222Z,8.60
2023-02-12T17:13:20.930Z,8.60
2023-02-12T17:15:52.922Z,8.60
2023-02-12T17:18:26.555Z,8.60
2023-02-12T17:20:56.118Z,8.60
2023-02-12T17:23:25.128Z,8.60
2023-02-12T17:25:53.808Z,8.70
2023-02-12T17:28:23.214Z,8.70
2023-02-12T17:30:51.554Z,8.70
2023-02-12T17:33:20.342Z,8.70
2023-02-12T17:35:50.292Z,8.60
2023-02-12T17:38:18.457Z,8.60
2023-02-12T17:40:46.995Z,8.60
2023-02-12T17:43:15.323Z,8.60
2023-02-12T17:45:44.165Z,8.70
2023-02-12T17:48:13.017Z,8.60
2023-02-12T17:50:41.930Z,8.60
2023-02-12T17:53:11.788Z,8.60
2023-02-12T17:55:40.295Z,8.60
2023-02-12T17:58:08.574Z,8.60
2023-02-12T18:00:36.717Z,8.60
2023-02-12T18:03:05.379Z,8.60
2023-02-12T18:05:33.478Z,8.60
2023-02-12T18:08:03.624Z,8.60
2023-02-12T18:10:33.511Z,8.60
2023-02-12T18:13:02.258Z,8.60
2023-02-12T18:15:30.540Z,8.60
2023-02-12T18:17:58.882Z,8.60
2023-02-12T18:20:27.133Z,8.60
2023-02-12T18:22:55.458Z,8.60
2023-02-12T18:25:23.641Z,8.60
2023-02-12T18:27:53.518Z,8.60
2023-02-12T18:30:21.750Z,8.60
2023-02-12T18:32:49.875Z,8.60
2023-02-12T18:35:19.369Z,8.50
2023-02-12T18:37:48.680Z,8.40
2023-02-12T18:40:16.879Z,8.40
2023-02-12T18:42:45.016Z,8.40
2023-02-12T18:45:14.672Z,8.50
2023-02-12T18:47:42.733Z,8.40
2023-02-12T18:50:11.276Z,8.40
2023-02-12T18:52:39.524Z,8.30
2023-02-12T18:55:08.400Z,8.30
2023-02-12T18:57:36.622Z,8.30
2023-02-12T19:00:05.665Z,8.30
2023-02-12T19:02:35.243Z,8.40
2023-02-12T19:05:03.446Z,8.40
2023-02-12T19:07:31.802Z,8.30
2023-02-12T19:10:00.008Z,8.40
2023-02-12T19:12:28.059Z,8.30
2023-02-12T19:14:56.335Z,8.30
2023-02-12T19:17:24.377Z,8.30
2023-02-12T19:19:53.989Z,8.20
2023-02-12T19:22:22.149Z,8.20
2023-02-12T19:24:51.256Z,8.30
2023-02-12T19:27:20.834Z,8.30
2023-02-12T19:29:49.030Z,8.20
2023-02-12T19:32:17.547Z,8.30
2023-02-12T19:34:46.110Z,8.30
2023-02-12T19:37:15.541Z,8.20
2023-02-12T19:39:43.752Z,8.30
2023-02-12T19:42:15.099Z,8.30
2023-02-12T19:44:43.303Z,8.20
2023-02-12T19:47:11.489Z,8.20
2023-02-12T19:49:39.881Z,8.20
2023-02-12T19:52:08.072Z,8.30
2023-02-12T19:54:37.787Z,8.30
2023-02-12T19:57:09.363Z,8.30
2023-02-12T19:59:39.802Z,8.20
2023-02-12T20:02:08.864Z,8.30
2023-02-12T20:04:37.128Z,8.20
2023-02-12T20:07:05.479Z,8.20
2023-02-12T20:09:33.533Z,8.20
2023-02-12T20:12:03.542Z,8.10
2023-02-12T20:14:31.648Z,8.10
2023-02-12T20:16:59.732Z,8.20
2023-02-12T20:19:28.668Z,8.10
2023-02-12T20:21:57.794Z,8.20
2023-02-12T20:24:26.598Z,8.20
2023-02-12T20:26:55.293Z,8.20
2023-02-12T20:29:26.525Z,8.20
2023-02-12T20:31:54.790Z,8.30
2023-02-12T20:34:23.470Z,8.30
2023-02-12T20:36:51.739Z,8.30
2023-02-12T20:39:20.530Z,8.30
2023-02-12T20:41:49.103Z,8.30
2023-02-12T20:44:18.091Z,8.30
2023-02-12T20:46:47.906Z,8.30
2023-02-12T20:49:16.412Z,8.30
2023-02-12T20:51:44.996Z,8.20
2023-02-12T20:54:13.340Z,8.30
2023-02-12T20:56:41.530Z,8.30
2023-02-12T20:59:09.625Z,8.30
2023-02-12T21:01:39.668Z,8.20
2023-02-12T21:04:09.775Z,8.20
2023-02-12T21:06:40.208Z,8.10
2023-02-12T21:09:09.753Z,8.10
2023-02-12T21:11:38.058Z,8.10
2023-02-12T21:14:21.200Z,8.10
2023-02-12T21:16:50.246Z,8.10
2023-02-12T21:19:19.705Z,8.20
2023-02-12T21:21:47.965Z,8.10
2023-02-12T21:24:16.916Z,8.20
2023-02-12T21:26:44.969Z,8.20
2023-02-12T21:29:13.047Z,8.20
2023-02-12T21:31:44.703Z,8.20
2023-02-12T21:34:14.213Z,8.10
2023-02-12T21:36:45.543Z,8.10
2023-02-12T21:39:14.558Z,8.20
2023-02-12T21:41:43.579Z,8.20
2023-02-12T21:44:12.822Z,8.10
2023-02-12T21:46:41.207Z,8.10
2023-02-12T21:49:09.474Z,8.10
2023-02-12T21:51:38.316Z,8.10
2023-02-12T21:54:09.998Z,8.10
2023-02-12T21:56:38.346Z,8.10
2023-02-12T21:59:06.785Z,8.10
2023-02-12T22:01:35.826Z,8.10
2023-02-12T22:04:04.575Z,8.10
2023-02-12T22:06:32.895Z,8.10
2023-02-12T22:09:02.531Z,8.10
2023-02-12T22:11:32.044Z,8.10
2023-02-12T22:14:00.890Z,8.10
2023-02-12T22:16:30.279Z,8.00
2023-02-12T22:18:59.607Z,8.00
2023-02-12T22:21:28.718Z,8.00
2023-02-12T22:23:57.850Z,8.00
2023-02-12T22:26:27.441Z,8.10
2023-02-12T22:28:58.966Z,8.10
2023-02-12T22:31:29.518Z,8.00
2023-02-12T22:33:58.810Z,8.10
2023-02-12T22:36:27.947Z,8.10
2023-02-12T22:38:57.049Z,8.00
2023-02-12T22:41:25.134Z,8.00
2023-02-12T22:43:53.654Z,8.00
2023-02-12T22:46:23.202Z,8.00
2023-02-12T22:48:51.202Z,8.00
2023-02-12T22:51:20.454Z,8.00
2023-02-12T22:53:48.551Z,8.00
2023-02-12T22:56:17.301Z,8.10
2023-02-12T22:58:45.448Z,8.00
2023-02-12T23:01:14.985Z,8.00
2023-02-12T23:03:47.392Z,8.00
2023-02-12T23:06:19.507Z,8.00
2023-02-12T23:08:50.321Z,7.90
2023-02-12T23:11:18.436Z,7.90
2023-02-12T23:13:46.531Z,7.90
2023-02-12T23:16:14.900Z,7.90
2023-02-12T23:18:44.489Z,7.90
2023-02-12T23:21:13.078Z,7.90
2023-02-12T23:23:41.320Z,7.90
2023-02-12T23:26:09.357Z,8.00
2023-02-12T23:28:37.486Z,8.10
2023-02-12T23:31:05.721Z,7.90
2023-02-12T23:33:33.803Z,7.90
2023-02-12T23:36:03.540Z,7.90
2023-02-12T23:38:31.673Z,7.90
2023-02-12T23:40:59.958Z,7.90
2023-02-12T23:43:28.168Z,7.90
2023-02-12T23:45:56.255Z,7.90
2023-02-12T23:48:24.675Z,7.90
2023-02-12T23:50:53.066Z,7.90
2023-02-12T23:53:22.781Z,7.90
2023-02-12T23:55:51.057Z,7.90
2023-02-12T23:58:19.390Z,7.80
